Joplin, MO

7:33 PM CDT on March 26, 2015 (GMT -0500)
Mohaska | | Change Station
CLOSE
Current Station
Personal Weather Station
Location: Joplin, MO
Elevation: 1010 ft
Nearby Weather Stations

Elev 1010 ft 37.06 °N, 94.52 °W | Updated 8 minutes ago

Clear
Clear
50.8 °F
Feels Like 50.8 °F
N
0.0
Wind Variable Wind from NNW
Gusts 5.0 mph

Today
High -- | Low -- °F
--% Chance of Precip.
Yesterday
High -- | Low -- °F
Precip. -- in
7:12 AM 7:35 PM
Waxing Crescent, 47% visible
Pressure 30.10 in
Visibility 10.0 miles
Clouds Clear
Dew Point 30 °F
Humidity 45%
Rainfall 0.00 in
Snow Depth Not available.
UV 0 out of 12
Pollen 6.40 out of 12
Air Quality Not available.
Flu Activity Not available.
METAR KJLN 262353Z COR 34007KT 10SM CLR 10/M02 A3009 RMK AO2 SLP192 T01001022 10122 20089 56007

More Conditions Fewer Conditions

Pressure 30.10 in
Visibility 10.0 miles
Clouds Clear
Dew Point 30 °F
Humidity 45%
Rainfall 0.00 in
Snow Depth Not available.
UV 0 out of 12
Pollen 6.40 out of 12
Air Quality Not available.
Flu Activity Not available.
METAR KJLN 262353Z COR 34007KT 10SM CLR 10/M02 A3009 RMK AO2 SLP192 T01001022 10122 20089 56007

More Conditions Fewer Conditions

10-Day Weather Forecast

Almanac

Astronomy

Mar. 26, 2015 Rise Set
Actual Time
Civil Twilight
Nautical Twilight
Astronomical Twilight
Moon
Length of Visible Light
Length of Day
Tomorrow will be .
, % of the Moon is Illuminated

Today's Extremes

State Highs State Lows

Community

WunderPhotos

Upload Photos

1,808,654 photos uploaded!

WunderBlogs® & News

Nearby

Air Quality

  Air Quality AQ Index Pollutant
Not available.

Snow Depth

Station Depth Elevation

Earthquake Activity

City Distance Mag. Time & Date
Minimum magnitude displayed is 2.5.

Coastal Water Temperatures

Place Temperature

Stations

Nearby Weather Stations

Station Location Temp. Windchill Dew Point Humidity Wind Precip. Elev Updated Type